Time;durP1;ratioP1;P1;durP2;ratioP2;P2;SDS_P1;SDS_P2;PMS_P1;PMS_P2;Temp;Humidity;BMP_temperature;BMP_pressure;BME280_temperature;BME280_humidity;BME280_pressure;Samples;Min_cycle;Max_cycle;Signal;HPM_P1;HPM_P2
2021/01/16 00:00:16;;;;;;;21.38;7.65;;;;;;;-10.14;81.65;98936.38;3476496;28;20052;-46
2021/01/16 00:01:57;;;;;;;19.27;7.75;;;;;;;-10.14;81.58;98938.91;3476161;28;20064;-46
2021/01/16 00:03:39;;;;;;;15.30;6.80;;;;;;;-10.13;81.53;98932.28;3475686;28;20546;-45
2021/01/16 00:05:22;;;;;;;15.23;7.32;;;;;;;-10.12;81.30;98936.53;3476451;28;20049;-49
2021/01/16 00:07:04;;;;;;;18.23;7.38;;;;;;;-10.12;81.15;98939.03;3477088;28;20078;-49
2021/01/16 00:08:46;;;;;;;16.52;7.40;;;;;;;-10.13;81.26;98942.31;3473533;28;20056;-49
2021/01/16 00:10:28;;;;;;;17.23;7.68;;;;;;;-10.14;80.89;98935.53;3474893;28;20091;-49
2021/01/16 00:12:09;;;;;;;19.20;7.68;;;;;;;-10.14;81.06;98938.03;3475071;28;20494;-52
2021/01/16 00:13:52;;;;;;;18.88;8.00;;;;;;;-10.13;81.23;98935.66;3474141;28;20049;-48
2021/01/16 00:15:33;;;;;;;15.20;7.00;;;;;;;-10.11;81.09;98939.16;3476313;28;20421;-52
2021/01/16 00:17:15;;;;;;;19.20;8.30;;;;;;;-10.11;80.77;98935.78;3475957;28;20045;-50
2021/01/16 00:18:57;;;;;;;18.13;8.68;;;;;;;-10.11;80.88;98931.63;3475228;28;20049;-51
2021/01/16 00:20:41;;;;;;;11.57;6.07;;;;;;;-10.11;80.89;98938.28;3476517;28;20052;-52
2021/01/16 00:22:22;;;;;;;19.70;7.50;;;;;;;-10.11;80.71;98939.16;3474471;28;20045;-50
2021/01/16 00:24:05;;;;;;;20.17;8.63;;;;;;;-10.10;81.27;98940.94;3474631;28;20049;-49
2021/01/16 00:25:46;;;;;;;19.58;7.70;;;;;;;-10.09;81.01;98935.13;3475326;28;20550;-49
2021/01/16 00:27:28;;;;;;;15.38;7.30;;;;;;;-10.09;80.86;98939.28;3474017;28;20426;-48
2021/01/16 00:29:10;;;;;;;16.40;7.22;;;;;;;-10.09;80.65;98936.78;3476763;28;20053;-48
2021/01/16 00:30:52;;;;;;;16.58;7.90;;;;;;;-10.10;80.68;98938.41;3471407;28;20058;-51
2021/01/16 00:32:34;;;;;;;19.05;8.20;;;;;;;-10.08;80.80;98936.91;3470953;28;20044;-49
2021/01/16 00:34:16;;;;;;;14.38;6.20;;;;;;;-10.07;81.07;98941.16;3483441;28;20081;-48
2021/01/16 00:35:58;;;;;;;19.27;7.18;;;;;;;-10.07;80.75;98935.28;3482578;28;20049;-49
2021/01/16 00:37:41;;;;;;;18.92;7.47;;;;;;;-10.07;80.81;98940.28;3480862;28;20053;-48
2021/01/16 00:39:23;;;;;;;18.10;8.13;;;;;;;-10.06;81.00;98937.91;3483039;28;20533;-48
2021/01/16 00:41:04;;;;;;;16.85;8.55;;;;;;;-10.05;81.11;98933.75;3480108;28;20053;-52
2021/01/16 00:42:48;;;;;;;15.70;7.30;;;;;;;-10.01;81.33;98934.88;3481335;28;20110;-51
2021/01/16 00:44:30;;;;;;;18.75;7.57;;;;;;;-10.00;81.36;98930.00;3482249;28;20056;-44
2021/01/16 00:46:11;;;;;;;20.92;9.05;;;;;;;-9.97;81.67;98914.34;3479770;28;20045;-45
2021/01/16 00:47:53;;;;;;;15.93;7.10;;;;;;;-9.96;81.42;98916.06;3483426;28;20064;-46
2021/01/16 00:49:35;;;;;;;18.35;8.05;;;;;;;-9.95;81.62;98926.22;3479834;28;20052;-46
2021/01/16 00:51:16;;;;;;;22.85;9.23;;;;;;;-9.93;81.82;98929.75;3480662;28;20048;-46
2021/01/16 00:52:59;;;;;;;26.13;11.50;;;;;;;-9.96;81.25;98921.09;3482372;28;20083;-45
2021/01/16 00:54:40;;;;;;;29.17;12.48;;;;;;;-10.01;80.84;98935.78;3480016;28;20057;-46
2021/01/16 00:56:22;;;;;;;24.85;11.57;;;;;;;-10.07;80.73;98935.28;3481673;28;20057;-45
2021/01/16 00:58:11;;;;;;;22.33;11.13;;;;;;;-10.14;80.37;98933.00;3472173;28;20069;-46
2021/01/16 00:59:53;;;;;;;29.85;11.68;;;;;;;-10.23;80.21;98934.78;3471920;28;20053;-45
2021/01/16 01:01:39;;;;;;;23.33;10.43;;;;;;;-10.31;80.43;98936.63;3468554;28;20053;-45
2021/01/16 01:03:22;;;;;;;24.48;10.85;;;;;;;-10.39;80.03;98938.50;3480429;28;20064;-45
2021/01/16 01:05:05;;;;;;;29.55;12.57;;;;;;;-10.48;80.26;98942.75;3477066;28;20041;-45
2021/01/16 01:06:46;;;;;;;25.10;10.35;;;;;;;-10.57;80.13;98945.38;3483047;28;20099;-45
2021/01/16 01:08:28;;;;;;;23.50;9.80;;;;;;;-10.66;79.37;98958.00;3481306;28;20060;-45
2021/01/16 01:10:10;;;;;;;22.27;8.70;;;;;;;-10.76;79.18;98952.97;3479493;28;20049;-45
2021/01/16 01:11:52;;;;;;;19.77;8.32;;;;;;;-10.84;79.36;98954.81;3483026;28;20060;-46
2021/01/16 01:13:33;;;;;;;22.52;8.55;;;;;;;-10.88;79.52;98966.94;3481368;28;20056;-46
2021/01/16 01:15:15;;;;;;;21.33;9.32;;;;;;;-10.95;79.66;98958.06;3480812;28;20087;-44
2021/01/16 01:16:57;;;;;;;20.05;9.15;;;;;;;-11.00;79.52;98961.78;3482935;28;20063;-45
2021/01/16 01:18:38;;;;;;;21.77;8.70;;;;;;;-11.04;79.49;98965.66;3480992;28;20434;-45
2021/01/16 01:20:22;;;;;;;19.63;8.55;;;;;;;-11.08;79.96;98960.28;3479109;28;20130;-45
2021/01/16 01:22:03;;;;;;;16.90;7.28;;;;;;;-11.10;80.12;98960.13;3467762;28;20049;-46
2021/01/16 01:23:45;;;;;;;17.15;7.53;;;;;;;-11.12;80.07;98961.63;3479585;28;20044;-46
2021/01/16 01:25:26;;;;;;;19.55;7.70;;;;;;;-11.13;79.88;98961.50;3480456;28;20099;-45
2021/01/16 01:27:08;;;;;;;17.98;7.80;;;;;;;-11.17;79.76;98962.00;3482872;28;20049;-45
2021/01/16 01:28:49;;;;;;;22.13;8.55;;;;;;;-11.23;79.28;98969.81;3480935;28;20044;-45
2021/01/16 01:30:32;;;;;;;18.70;8.15;;;;;;;-11.29;79.18;98959.28;3480079;28;20049;-46
2021/01/16 01:32:13;;;;;;;15.10;7.28;;;;;;;-11.35;79.65;98959.66;3482753;28;20418;-45
2021/01/16 01:33:55;;;;;;;14.93;6.88;;;;;;;-11.38;79.87;98953.50;3479725;28;20059;-45
2021/01/16 01:35:37;;;;;;;14.65;6.80;;;;;;;-11.40;80.41;98963.38;3479272;28;20096;-46
2021/01/16 01:37:18;;;;;;;16.83;6.90;;;;;;;-11.42;80.81;98960.72;3482806;28;20065;-45
2021/01/16 01:38:59;;;;;;;17.83;7.53;;;;;;;-11.42;80.38;98959.84;3479169;28;20098;-45
2021/01/16 01:40:41;;;;;;;21.08;7.10;;;;;;;-11.43;80.41;98955.59;3480797;28;20052;-45
2021/01/16 01:42:23;;;;;;;16.75;7.45;;;;;;;-11.45;80.49;98954.56;3482738;28;20084;-45
2021/01/16 01:44:05;;;;;;;14.20;6.55;;;;;;;-11.47;80.57;98956.06;3478310;28;20064;-45
2021/01/16 01:45:47;;;;;;;15.82;7.07;;;;;;;-11.48;80.39;98962.69;3480598;28;20064;-45
2021/01/16 01:47:29;;;;;;;11.93;6.38;;;;;;;-11.49;80.25;98963.44;3480568;28;20052;-44
2021/01/16 01:49:11;;;;;;;17.02;7.72;;;;;;;-11.51;80.08;98956.53;3479229;28;20178;-45
2021/01/16 01:50:52;;;;;;;13.38;6.97;;;;;;;-11.53;80.36;98953.00;3482236;28;20052;-45
2021/01/16 01:52:34;;;;;;;20.60;7.55;;;;;;;-11.55;80.71;98954.50;3479295;28;20410;-46
2021/01/16 01:54:18;;;;;;;18.63;7.70;;;;;;;-11.57;80.58;98949.38;3479077;28;20052;-45
2021/01/16 01:56:02;;;;;;;;;;;;;;;-11.59;80.63;98950.84;3469237;28;20057;-46
2021/01/16 01:57:44;;;;;;;17.83;7.13;;;;;;;-11.62;80.50;98953.94;3479649;28;20385;-46
2021/01/16 01:59:28;;;;;;;17.10;7.40;;;;;;;-11.64;80.50;98957.94;3479079;28;20112;-46
2021/01/16 02:01:12;;;;;;;15.75;6.85;;;;;;;-11.66;80.57;98956.06;3476330;28;20053;-46
2021/01/16 02:02:59;;;;;;;21.15;7.78;;;;;;;-11.68;80.74;98960.06;3477061;28;20057;-45
2021/01/16 02:04:43;;;;;;;17.85;7.75;;;;;;;-11.68;80.90;98955.06;3479485;28;20064;-45
2021/01/16 02:06:27;;;;;;;21.73;8.52;;;;;;;-11.68;81.27;98962.56;3482360;28;20053;-45
2021/01/16 02:08:08;;;;;;;15.73;7.15;;;;;;;-11.66;81.47;98969.44;3481478;28;20087;-46
2021/01/16 02:09:51;;;;;;;16.33;7.35;;;;;;;-11.63;81.51;98974.72;3479079;28;20579;-45
2021/01/16 02:11:32;;;;;;;19.67;8.18;;;;;;;-11.63;81.35;98972.22;3468888;28;20064;-45
2021/01/16 02:13:14;;;;;;;20.30;8.32;;;;;;;-11.63;81.58;98979.72;3475594;28;20053;-46
2021/01/16 02:15:07;;;;;;;19.45;8.27;;;;;;;-11.62;81.42;98986.47;3480516;28;20482;-45
2021/01/16 02:16:51;;;;;;;19.85;8.35;;;;;;;-11.64;80.39;98990.47;3469381;28;20057;-45
2021/01/16 02:18:36;;;;;;;22.85;7.55;;;;;;;-11.64;80.05;98987.09;3473778;28;20045;-45
2021/01/16 02:20:27;;;;;;;21.92;7.90;;;;;;;-11.67;79.61;98984.31;3480867;28;20080;-45
2021/01/16 02:22:09;;;;;;;14.77;6.78;;;;;;;-11.69;79.63;98986.69;3480931;28;20048;-45
2021/01/16 02:23:57;;;;;;;21.05;8.05;;;;;;;-11.74;79.30;98979.50;3478718;28;20100;-45
2021/01/16 02:25:57;;;;;;;24.02;7.60;;;;;;;-11.76;79.54;98984.38;3480481;28;20418;-45
2021/01/16 02:27:52;;;;;;;19.67;7.97;;;;;;;-11.78;79.53;98986.75;3468722;28;20061;-46
2021/01/16 02:29:34;;;;;;;18.73;7.47;;;;;;;-11.78;79.94;98991.75;3476627;28;20077;-44
2021/01/16 02:31:16;;;;;;;17.25;8.27;;;;;;;-11.79;79.29;98992.50;3478803;28;20152;-46
2021/01/16 02:33:00;;;;;;;22.33;8.23;;;;;;;-11.79;79.59;98990.00;3480811;28;20505;-45
2021/01/16 02:34:42;;;;;;;17.95;7.30;;;;;;;-11.79;79.35;98995.00;3481047;28;20435;-46
2021/01/16 02:36:39;;;;;;;17.63;7.80;;;;;;;-11.81;79.32;98995.59;3480296;28;20049;-45
2021/01/16 02:38:30;;;;;;;23.35;7.40;;;;;;;-11.83;79.38;98992.97;3482495;28;20045;-45
2021/01/16 02:40:15;;;;;;;19.95;8.60;;;;;;;-11.87;77.78;98987.56;3478696;28;20060;-45
2021/01/16 02:42:01;;;;;;;21.33;7.70;;;;;;;-11.98;76.55;98974.97;3479189;28;20049;-46
2021/01/16 02:43:50;;;;;;;18.33;7.07;;;;;;;-12.04;76.91;98988.53;3468339;28;20407;-45
2021/01/16 02:45:36;;;;;;;18.88;7.38;;;;;;;-12.12;76.41;98981.97;3470394;28;20057;-48
2021/01/16 02:47:25;;;;;;;15.90;7.05;;;;;;;-12.19;76.45;98983.91;3469811;28;20057;-45
2021/01/16 02:49:20;;;;;;;19.85;7.25;;;;;;;-12.26;76.02;98984.09;3480957;28;20061;-45
2021/01/16 02:51:03;;;;;;;15.65;6.68;;;;;;;-12.34;75.13;98985.03;3478497;28;20071;-46
2021/01/16 02:52:46;;;;;;;19.40;8.15;;;;;;;-12.40;74.32;98982.00;3479160;28;20049;-46
2021/01/16 02:54:27;;;;;;;17.27;6.45;;;;;;;-12.48;73.46;98985.41;3468486;28;20503;-45
2021/01/16 02:56:12;;;;;;;19.02;6.35;;;;;;;-12.55;73.96;98987.34;3474824;28;20076;-45
2021/01/16 02:57:53;;;;;;;16.52;8.07;;;;;;;-12.60;74.33;98991.03;3479744;28;20045;-45
2021/01/16 02:59:36;;;;;;;16.88;6.90;;;;;;;-12.64;74.78;98983.13;3480586;28;20048;-46
2021/01/16 03:01:19;;;;;;;12.40;6.07;;;;;;;-12.69;73.58;98987.69;3478602;28;20055;-45
2021/01/16 03:03:00;;;;;;;20.00;7.13;;;;;;;-12.73;74.03;98985.63;3482379;28;20057;-45
2021/01/16 03:04:43;;;;;;;16.95;6.53;;;;;;;-12.77;74.53;98991.09;3478993;28;20399;-45
2021/01/16 03:06:25;;;;;;;22.58;7.75;;;;;;;-12.80;74.95;98995.78;3478399;28;20435;-45
2021/01/16 03:08:07;;;;;;;18.67;6.88;;;;;;;-12.84;75.05;99001.25;3482074;28;20057;-45
2021/01/16 03:09:49;;;;;;;20.85;8.00;;;;;;;-12.88;74.87;99002.59;3478393;28;20053;-45
2021/01/16 03:11:33;;;;;;;17.17;6.55;;;;;;;-12.93;73.77;99002.13;3479778;28;20049;-47
2021/01/16 03:13:15;;;;;;;17.20;8.02;;;;;;;-12.98;73.67;99009.94;3481775;28;20075;-45
2021/01/16 03:14:59;;;;;;;19.85;7.45;;;;;;;-13.04;73.79;99002.75;3478535;28;20049;-44
2021/01/16 03:17:06;;;;;;;17.67;7.13;;;;;;;-13.12;73.64;98999.53;3479810;28;20049;-46
2021/01/16 03:18:55;;;;;;;18.98;7.18;;;;;;;-13.21;73.56;99011.13;3481999;28;20053;-45
2021/01/16 03:20:37;;;;;;;24.80;9.10;;;;;;;-13.31;73.71;99016.88;3478164;28;20049;-44
2021/01/16 03:22:20;;;;;;;25.10;8.20;;;;;;;-13.37;74.40;99017.91;3470509;28;20046;-46
2021/01/16 03:24:01;;;;;;;17.85;8.20;;;;;;;-13.42;74.81;99022.44;3469073;28;20144;-44
2021/01/16 03:25:43;;;;;;;19.67;7.82;;;;;;;-13.48;75.22;99011.91;3476151;28;20044;-44
2021/01/16 03:27:26;;;;;;;18.98;7.13;;;;;;;-13.53;75.82;99006.47;3482847;28;20462;-45
2021/01/16 03:29:07;;;;;;;20.55;8.35;;;;;;;-13.55;76.19;99010.41;3482082;28;20056;-44
2021/01/16 03:30:49;;;;;;;19.63;7.05;;;;;;;-13.57;76.11;99006.91;3477778;28;20045;-45
2021/01/16 03:32:31;;;;;;;20.10;7.88;;;;;;;-13.59;76.47;99003.41;3469949;28;20434;-45
2021/01/16 03:34:13;;;;;;;18.45;6.93;;;;;;;-13.60;76.63;99009.13;3470975;28;20089;-45
2021/01/16 03:35:54;;;;;;;19.48;6.90;;;;;;;-13.61;76.71;99012.38;3470897;28;20068;-45
2021/01/16 03:37:36;;;;;;;16.35;6.93;;;;;;;-13.61;76.63;99014.88;3482811;28;20124;-45
2021/01/16 03:39:17;;;;;;;15.90;6.50;;;;;;;-13.65;76.44;99012.78;3480196;28;20143;-46
2021/01/16 03:40:58;;;;;;;19.55;6.88;;;;;;;-13.68;76.74;99017.47;3481547;28;20053;-45
2021/01/16 03:42:41;;;;;;;16.60;5.93;;;;;;;-13.72;76.50;99012.94;3480987;28;20052;-44
2021/01/16 03:44:22;;;;;;;11.80;4.90;;;;;;;-13.76;76.57;99016.75;3480073;28;20096;-45
2021/01/16 03:46:05;;;;;;;12.30;5.32;;;;;;;-13.81;76.37;99009.56;3483223;28;20056;-45
2021/01/16 03:47:47;;;;;;;20.48;7.32;;;;;;;-13.89;76.60;99017.16;3480052;28;20099;-45
2021/01/16 03:49:28;;;;;;;20.83;7.15;;;;;;;-13.97;76.66;99004.69;3479550;28;20045;-46
2021/01/16 03:51:10;;;;;;;19.38;6.45;;;;;;;-14.03;76.75;99012.44;3469538;28;20095;-44
2021/01/16 03:52:51;;;;;;;24.50;8.68;;;;;;;-14.09;76.72;99016.81;3476411;28;20048;-45
2021/01/16 03:54:33;;;;;;;20.63;7.28;;;;;;;-14.12;77.28;99021.50;3481075;28;20049;-44
2021/01/16 03:56:15;;;;;;;13.27;6.10;;;;;;;-14.18;76.61;99023.41;3481671;28;20049;-46
2021/01/16 03:57:56;;;;;;;25.10;8.68;;;;;;;-14.23;76.86;99024.56;3480046;28;20049;-46
2021/01/16 03:59:38;;;;;;;20.75;5.90;;;;;;;-14.29;76.70;99019.84;3483389;28;20052;-45
2021/01/16 04:01:20;;;;;;;23.55;6.88;;;;;;;-14.34;76.55;99025.97;3480337;28;20080;-46
2021/01/16 04:03:02;;;;;;;18.50;6.35;;;;;;;-14.43;76.22;99028.44;3480376;28;20076;-45
2021/01/16 04:04:44;;;;;;;12.80;5.40;;;;;;;-14.48;76.17;99037.91;3483733;28;20052;-47
2021/01/16 04:06:25;;;;;;;16.15;6.93;;;;;;;-14.52;76.45;99040.84;3480162;28;20445;-45
2021/01/16 04:08:07;;;;;;;16.73;6.95;;;;;;;-14.56;76.10;99030.41;3483342;28;20085;-45
2021/01/16 04:09:48;;;;;;;15.50;5.67;;;;;;;-14.61;75.64;99034.94;3469968;28;20454;-45
2021/01/16 04:11:30;;;;;;;18.67;7.40;;;;;;;-14.66;75.71;99028.63;3478109;28;20530;-45
2021/01/16 04:13:11;;;;;;;16.08;6.30;;;;;;;-14.71;76.12;99039.72;3481958;28;20098;-47
2021/01/16 04:14:53;;;;;;;15.07;6.50;;;;;;;-14.72;76.71;99045.41;3482057;28;20091;-44
2021/01/16 04:16:35;;;;;;;17.30;8.75;;;;;;;-14.72;77.09;99047.91;3480338;28;20052;-48
2021/01/16 04:18:17;;;;;;;14.20;6.25;;;;;;;-14.75;76.35;99040.19;3483802;28;20057;-45
2021/01/16 04:19:58;;;;;;;20.55;6.75;;;;;;;-14.77;76.52;99044.13;3471970;28;20057;-45
2021/01/16 04:21:40;;;;;;;19.38;6.85;;;;;;;-14.77;77.05;99046.63;3471468;28;20052;-45
2021/01/16 04:23:21;;;;;;;13.50;6.32;;;;;;;-14.81;76.08;99052.00;3483589;28;20550;-45
2021/01/16 04:25:04;;;;;;;17.00;6.87;;;;;;;-14.86;75.97;99052.41;3480161;28;20056;-47
2021/01/16 04:26:48;;;;;;;20.88;6.93;;;;;;;-14.91;75.87;99052.69;3481429;28;20053;-45
2021/01/16 04:28:30;;;;;;;16.58;6.88;;;;;;;-14.96;76.11;99063.78;3482474;28;20060;-45
2021/01/16 04:30:12;;;;;;;18.83;6.67;;;;;;;-15.02;75.99;99061.53;3480034;28;20102;-44
2021/01/16 04:31:54;;;;;;;19.30;6.95;;;;;;;-15.09;75.74;99057.53;3481337;28;20049;-45
2021/01/16 04:33:36;;;;;;;16.43;6.80;;;;;;;-15.16;75.56;99059.22;3481481;28;20044;-46
2021/01/16 04:35:18;;;;;;;18.13;6.63;;;;;;;-15.24;75.91;99046.00;3479278;28;20045;-45
2021/01/16 04:36:59;;;;;;;17.83;6.40;;;;;;;-15.30;75.73;99045.38;3483259;28;20055;-45
2021/01/16 04:38:41;;;;;;;21.03;7.07;;;;;;;-15.35;75.85;99044.91;3479867;28;20506;-45
2021/01/16 04:40:23;;;;;;;24.63;7.83;;;;;;;-15.38;76.08;99046.19;3481546;28;20042;-45
2021/01/16 04:42:06;;;;;;;19.60;6.90;;;;;;;-15.43;76.41;99044.13;3470541;28;20045;-45
2021/01/16 04:43:47;;;;;;;19.27;8.48;;;;;;;-15.44;76.37;99048.94;3478188;28;20099;-45
2021/01/16 04:45:31;;;;;;;17.77;7.00;;;;;;;-15.46;76.50;99053.75;3482573;28;20045;-46
2021/01/16 04:47:22;;;;;;;24.02;6.97;;;;;;;-15.48;76.39;99057.69;3483312;28;20494;-46
2021/01/16 04:49:05;;;;;;;21.17;7.63;;;;;;;-15.51;76.24;99059.84;3480099;28;20346;-45
2021/01/16 04:51:05;;;;;;;20.63;6.20;;;;;;;-15.56;76.27;99067.53;3482273;28;20070;-46
2021/01/16 04:52:47;;;;;;;18.80;7.07;;;;;;;-15.61;76.35;99065.44;3481817;28;20072;-45
2021/01/16 04:54:31;;;;;;;17.47;6.97;;;;;;;-15.66;76.38;99071.53;3481532;28;20061;-45
2021/01/16 04:56:13;;;;;;;18.53;6.93;;;;;;;-15.69;76.49;99080.25;3479689;28;20438;-44
2021/01/16 04:58:03;;;;;;;23.57;7.27;;;;;;;-15.77;76.55;99076.09;3483269;28;20049;-45
2021/01/16 04:59:45;;;;;;;21.80;7.20;;;;;;;-15.83;76.94;99082.19;3471935;28;20539;-45
2021/01/16 05:01:28;;;;;;;20.53;7.70;;;;;;;-15.88;76.85;99077.50;3471952;28;20095;-45
2021/01/16 05:03:11;;;;;;;23.47;7.60;;;;;;;-15.92;77.11;99078.78;3483243;28;20060;-45
2021/01/16 05:04:58;;;;;;;15.63;6.22;;;;;;;-15.94;77.37;99086.75;3479626;28;20045;-45
2021/01/16 05:06:40;;;;;;;18.83;7.27;;;;;;;-15.98;77.41;99077.22;3480231;28;20048;-44
2021/01/16 05:08:23;;;;;;;26.97;7.20;;;;;;;-16.02;77.75;99088.44;3482787;28;20071;-45
2021/01/16 05:10:07;;;;;;;19.48;6.60;;;;;;;-16.06;77.86;99084.75;3479468;28;20056;-45
2021/01/16 05:12:00;;;;;;;20.10;7.23;;;;;;;-16.08;78.24;99093.66;3481215;28;20073;-45
2021/01/16 05:13:44;;;;;;;19.73;6.33;;;;;;;-16.10;77.97;99087.59;3470030;28;20076;-45
2021/01/16 05:15:30;;;;;;;15.17;6.43;;;;;;;-16.13;78.07;99089.78;3475530;28;20494;-45
2021/01/16 05:17:13;;;;;;;22.83;7.37;;;;;;;-16.15;78.29;99093.72;3480999;28;20083;-44
2021/01/16 05:18:57;;;;;;;17.58;7.07;;;;;;;-16.17;78.22;99089.28;3481368;28;20048;-45
2021/01/16 05:20:41;;;;;;;16.30;5.13;;;;;;;-16.21;78.37;99103.84;3479190;28;20082;-45
2021/01/16 05:22:22;;;;;;;21.70;7.40;;;;;;;-16.21;78.65;99098.00;3482530;28;20053;-45
2021/01/16 05:24:06;;;;;;;21.60;7.17;;;;;;;-16.22;78.43;99099.63;3480036;28;20055;-46
2021/01/16 05:25:49;;;;;;;24.43;8.47;;;;;;;-16.23;78.75;99097.84;3479335;28;20057;-45
2021/01/16 05:27:34;;;;;;;11.68;5.97;;;;;;;-16.23;78.57;99099.44;3483185;28;20045;-45
2021/01/16 05:29:17;;;;;;;20.83;8.27;;;;;;;-16.27;78.73;99098.25;3479669;28;20060;-45
2021/01/16 05:31:00;;;;;;;19.37;7.47;;;;;;;-16.28;78.83;99105.50;3479407;28;20099;-45
2021/01/16 05:32:41;;;;;;;25.55;9.38;;;;;;;-16.28;78.94;99106.38;3482725;28;20456;-46
2021/01/16 05:34:24;;;;;;;13.67;5.23;;;;;;;-16.30;78.93;99107.81;3482133;28;20128;-45
2021/01/16 05:36:07;;;;;;;23.02;8.05;;;;;;;-16.29;79.00;99118.63;3479817;28;20053;-44
2021/01/16 05:37:49;;;;;;;27.05;8.27;;;;;;;-16.27;79.66;99114.75;3482609;28;20095;-45
2021/01/16 05:39:33;;;;;;;22.73;7.87;;;;;;;-16.26;79.43;99121.44;3479222;28;20426;-45
2021/01/16 05:41:16;;;;;;;22.70;7.93;;;;;;;-16.27;79.30;99112.25;3480830;28;20049;-46
2021/01/16 05:42:59;;;;;;;23.47;8.20;;;;;;;-16.28;79.13;99117.94;3481628;28;20056;-46
2021/01/16 05:44:42;;;;;;;21.70;7.18;;;;;;;-16.29;78.92;99118.63;3479225;28;20045;-45
2021/01/16 05:46:30;;;;;;;20.87;8.03;;;;;;;-16.31;78.85;99113.50;3481794;28;20045;-46
2021/01/16 05:48:14;;;;;;;24.43;8.67;;;;;;;-16.31;79.52;99115.09;3480886;28;20079;-46
2021/01/16 05:49:59;;;;;;;25.35;8.30;;;;;;;-16.31;79.49;99120.06;3479050;28;20498;-46
2021/01/16 05:51:44;;;;;;;28.27;9.60;;;;;;;-16.32;79.55;99113.34;3482520;28;20049;-45
2021/01/16 05:53:27;;;;;;;21.80;7.53;;;;;;;-16.33;79.46;99114.94;3480465;28;20102;-44
2021/01/16 05:55:09;;;;;;;21.33;8.70;;;;;;;-16.35;79.75;99103.97;3479133;28;20548;-46
2021/01/16 05:56:51;;;;;;;20.63;6.77;;;;;;;-16.35;80.16;99113.91;3482730;28;20049;-44
2021/01/16 05:58:34;;;;;;;18.50;7.27;;;;;;;-16.35;79.80;99113.03;3473658;28;20049;-45
2021/01/16 06:00:22;;;;;;;21.30;8.48;;;;;;;-16.35;79.07;99120.47;3471159;28;20124;-45
2021/01/16 06:02:08;;;;;;;24.30;7.23;;;;;;;-16.33;78.65;99116.53;3482460;28;20045;-46
2021/01/16 06:03:51;;;;;;;22.83;6.63;;;;;;;-16.35;78.30;99122.94;3479146;28;20055;-46
2021/01/16 06:05:34;;;;;;;18.08;7.15;;;;;;;-16.38;78.14;99119.44;3479565;28;20076;-47
2021/01/16 06:07:21;;;;;;;19.00;6.10;;;;;;;-16.37;77.64;99127.75;3469208;28;20060;-44
2021/01/16 06:09:04;;;;;;;23.73;8.30;;;;;;;-16.38;77.34;99131.84;3476195;28;20060;-44
2021/01/16 06:10:52;;;;;;;20.13;8.17;;;;;;;-16.38;77.51;99135.91;3480293;28;20114;-45
2021/01/16 06:12:34;;;;;;;16.97;6.13;;;;;;;-16.41;77.00;99143.91;3469484;28;20568;-44
2021/01/16 06:14:16;;;;;;;20.00;6.37;;;;;;;-16.43;76.51;99150.31;3474503;28;20088;-45
2021/01/16 06:16:12;;;;;;;16.97;5.70;;;;;;;-16.45;76.39;99139.34;3480965;28;20056;-44
2021/01/16 06:17:55;;;;;;;19.07;6.23;;;;;;;-16.47;75.96;99152.28;3480876;28;20211;-44
2021/01/16 06:19:41;;;;;;;18.40;6.27;;;;;;;-16.49;75.84;99153.72;3478934;28;20055;-45
2021/01/16 06:21:24;;;;;;;17.10;6.63;;;;;;;-16.49;75.66;99161.16;3480823;28;20055;-45
2021/01/16 06:23:10;;;;;;;;;;;;;;;-16.51;75.43;99160.97;3480751;28;20053;-45
2021/01/16 06:24:52;;;;;;;15.10;7.37;;;;;;;-16.51;75.71;99165.94;3481571;28;19925;-45
2021/01/16 06:26:37;;;;;;;16.40;5.97;;;;;;;-16.53;75.45;99162.41;3480499;28;20052;-45
2021/01/16 06:28:23;;;;;;;15.07;5.97;;;;;;;-16.53;75.89;99156.59;3480810;28;20048;-45
2021/01/16 06:30:05;;;;;;;25.93;6.70;;;;;;;-16.50;76.23;99169.31;3478807;28;20045;-45
2021/01/16 06:31:49;;;;;;;18.50;7.57;;;;;;;-16.49;76.11;99159.53;3476887;28;20053;-44
2021/01/16 06:33:31;;;;;;;13.93;5.07;;;;;;;-16.46;75.65;99163.97;3479967;28;20084;-44
2021/01/16 06:35:14;;;;;;;20.73;6.57;;;;;;;-16.47;74.99;99160.59;3478887;28;20041;-45
2021/01/16 06:37:04;;;;;;;20.47;7.70;;;;;;;-16.48;74.86;99171.25;3482331;28;20049;-44
2021/01/16 06:38:56;;;;;;;15.87;5.93;;;;;;;-16.52;74.47;99173.22;3478560;28;20061;-44
2021/01/16 06:40:37;;;;;;;16.40;6.37;;;;;;;-16.57;74.33;99173.59;3478701;28;20045;-45
2021/01/16 06:42:22;;;;;;;19.87;6.93;;;;;;;-16.59;75.16;99184.06;3482373;28;20053;-45
2021/01/16 06:44:13;;;;;;;20.83;7.40;;;;;;;-16.53;75.77;99182.28;3471698;28;20077;-45
2021/01/16 06:46:08;;;;;;;17.07;6.87;;;;;;;-16.52;74.81;99181.56;3470088;28;20099;-44
2021/01/16 06:47:55;;;;;;;19.90;6.97;;;;;;;-16.49;74.49;99179.41;3482097;28;20053;-46
2021/01/16 06:49:36;;;;;;;14.37;6.27;;;;;;;-16.50;74.46;99182.63;3478870;28;20095;-45
2021/01/16 06:51:23;;;;;;;16.40;6.97;;;;;;;-16.48;74.16;99190.22;3478664;28;20144;-46
2021/01/16 06:53:24;;;;;;;19.93;6.37;;;;;;;-16.47;74.44;99185.41;3482190;28;20049;-44
2021/01/16 06:55:07;;;;;;;13.60;6.23;;;;;;;-16.44;74.10;99185.75;3478979;28;20498;-45
2021/01/16 06:57:00;;;;;;;21.98;7.10;;;;;;;-16.39;74.31;99188.75;3478622;28;20060;-47
2021/01/16 06:58:43;;;;;;;25.05;7.05;;;;;;;-16.31;74.21;99189.59;3482522;28;20115;-49
2021/01/16 07:00:25;;;;;;;22.60;7.80;;;;;;;-16.32;73.09;99191.19;3481103;28;20489;-48
2021/01/16 07:02:26;;;;;;;17.70;5.77;;;;;;;-16.30;73.21;99192.22;3480928;28;20569;-49
2021/01/16 07:04:12;;;;;;;20.70;7.40;;;;;;;-16.29;72.87;99198.06;3484550;28;20057;-48
2021/01/16 07:05:55;;;;;;;12.47;5.67;;;;;;;-16.26;72.50;99198.41;3482249;28;20071;-44
2021/01/16 07:07:38;;;;;;;13.00;4.77;;;;;;;-16.23;72.60;99196.28;3480929;28;20048;-44
2021/01/16 07:09:21;;;;;;;17.52;6.72;;;;;;;-16.18;73.82;99207.59;3484443;28;20347;-45
2021/01/16 07:11:06;;;;;;;23.63;7.00;;;;;;;-16.07;73.20;99199.69;3480894;28;20056;-44
2021/01/16 07:12:48;;;;;;;18.10;5.57;;;;;;;-15.90;73.18;99209.00;3481435;28;20092;-45
2021/01/16 07:14:30;;;;;;;16.73;7.53;;;;;;;-15.76;72.42;99217.00;3470868;28;20119;-51
2021/01/16 07:16:12;;;;;;;14.67;6.70;;;;;;;-15.69;71.23;99211.97;3477315;28;20056;-49
2021/01/16 07:17:55;;;;;;;20.20;6.17;;;;;;;-15.62;71.75;99219.34;3482207;28;20611;-51
2021/01/16 07:19:37;;;;;;;17.77;6.63;;;;;;;-15.52;70.61;99216.28;3482756;28;20048;-49
2021/01/16 07:21:19;;;;;;;19.87;6.90;;;;;;;-15.48;69.81;99216.78;3480663;28;20553;-47
2021/01/16 07:23:01;;;;;;;18.97;6.13;;;;;;;-15.36;71.62;99216.31;3484034;28;20513;-47
2021/01/16 07:24:45;;;;;;;22.37;6.47;;;;;;;-15.22;70.68;99214.53;3479066;28;20045;-50
2021/01/16 07:26:26;;;;;;;18.05;5.78;;;;;;;-15.15;69.56;99225.16;3478776;28;20041;-48
2021/01/16 07:28:10;;;;;;;16.40;6.63;;;;;;;-15.13;69.09;99222.09;3476797;28;20041;-48
2021/01/16 07:29:56;;;;;;;15.27;4.53;;;;;;;-15.12;68.24;99231.34;3476680;28;20053;-47
2021/01/16 07:31:40;;;;;;;21.77;7.10;;;;;;;-15.13;69.30;99224.59;3459275;28;20049;-49
2021/01/16 07:33:27;;;;;;;17.27;6.90;;;;;;;-15.14;68.01;99222.84;3462009;28;20084;-48
2021/01/16 07:35:11;;;;;;;13.00;5.80;;;;;;;-15.26;67.64;99226.50;3462853;28;20045;-49
2021/01/16 07:36:53;;;;;;;11.10;4.30;;;;;;;-15.36;67.85;99227.13;3460730;28;20057;-49
2021/01/16 07:38:36;;;;;;;16.53;6.83;;;;;;;-15.35;68.73;99233.88;3463178;28;20510;-48
2021/01/16 07:40:20;;;;;;;16.60;6.18;;;;;;;-15.35;68.37;99236.34;3462061;28;20053;-49
2021/01/16 07:42:11;;;;;;;22.23;6.07;;;;;;;-15.36;68.73;99223.75;3463548;28;20519;-49
2021/01/16 07:44:05;;;;;;;16.27;4.57;;;;;;;-15.25;69.02;99228.25;3462454;28;20054;-48
2021/01/16 07:45:49;;;;;;;14.48;5.97;;;;;;;-15.29;67.34;99227.03;3460855;28;20049;-50
2021/01/16 07:47:39;;;;;;;17.43;6.13;;;;;;;-15.31;67.51;99228.50;3461268;28;20052;-48
2021/01/16 07:49:27;;;;;;;17.63;6.43;;;;;;;-15.42;67.88;99239.78;3463001;28;20051;-48
2021/01/16 07:51:08;;;;;;;16.73;5.93;;;;;;;-15.37;68.66;99239.38;3461485;28;20494;-48
2021/01/16 07:52:55;;;;;;;22.27;5.63;;;;;;;-15.24;68.99;99237.50;3460911;28;20057;-48
2021/01/16 07:54:44;;;;;;;24.03;6.43;;;;;;;-15.14;68.22;99242.72;3460659;28;20045;-48
2021/01/16 07:56:36;;;;;;;16.63;5.67;;;;;;;-15.01;68.11;99237.44;3463439;28;20052;-48